sensor_id;sensor_type;location;lat;lon;timestamp;temperature;humidity
29201;DHT22;16244;51.956;12.980;2024-03-22T00:01:54;7.30;99.90
29201;DHT22;16244;51.956;12.980;2024-03-22T00:04:21;7.20;99.90
29201;DHT22;16244;51.956;12.980;2024-03-22T00:06:50;7.20;99.90
29201;DHT22;16244;51.956;12.980;2024-03-22T00:09:17;7.20;99.90
29201;DHT22;16244;51.956;12.980;2024-03-22T00:11:47;7.10;99.90
29201;DHT22;16244;51.956;12.980;2024-03-22T00:14:15;7.00;99.90
29201;DHT22;16244;51.956;12.980;2024-03-22T00:16:43;7.00;99.90
29201;DHT22;16244;51.956;12.980;2024-03-22T00:19:10;6.90;99.90
29201;DHT22;16244;51.956;12.980;2024-03-22T00:21:37;6.80;99.90
29201;DHT22;16244;51.956;12.980;2024-03-22T00:24:05;6.80;99.90
29201;DHT22;16244;51.956;12.980;2024-03-22T00:26:33;6.80;99.90
29201;DHT22;16244;51.956;12.980;2024-03-22T00:28:59;6.80;99.90
29201;DHT22;16244;51.956;12.980;2024-03-22T00:31:28;6.80;99.90
29201;DHT22;16244;51.956;12.980;2024-03-22T00:33:55;6.80;99.90
29201;DHT22;16244;51.956;12.980;2024-03-22T00:36:23;6.80;99.90
29201;DHT22;16244;51.956;12.980;2024-03-22T00:38:51;6.70;99.90
29201;DHT22;16244;51.956;12.980;2024-03-22T00:41:21;6.70;99.90
29201;DHT22;16244;51.956;12.980;2024-03-22T00:43:48;6.70;99.90
29201;DHT22;16244;51.956;12.980;2024-03-22T00:46:17;6.70;99.90
29201;DHT22;16244;51.956;12.980;2024-03-22T00:48:44;6.80;99.90
29201;DHT22;16244;51.956;12.980;2024-03-22T00:51:13;6.80;99.90
29201;DHT22;16244;51.956;12.980;2024-03-22T00:53:39;6.80;99.90
29201;DHT22;16244;51.956;12.980;2024-03-22T00:56:07;6.80;99.90
29201;DHT22;16244;51.956;12.980;2024-03-22T00:58:33;6.80;99.90
29201;DHT22;16244;51.956;12.980;2024-03-22T01:01:01;6.80;99.90
29201;DHT22;16244;51.956;12.980;2024-03-22T01:03:30;6.80;99.90
29201;DHT22;16244;51.956;12.980;2024-03-22T01:06:03;6.70;99.90
29201;DHT22;16244;51.956;12.980;2024-03-22T01:08:31;6.70;99.90
29201;DHT22;16244;51.956;12.980;2024-03-22T01:11:00;6.70;99.90
29201;DHT22;16244;51.956;12.980;2024-03-22T01:13:28;6.60;99.90
29201;DHT22;16244;51.956;12.980;2024-03-22T01:15:57;6.60;99.90
29201;DHT22;16244;51.956;12.980;2024-03-22T01:18:34;6.60;99.90
29201;DHT22;16244;51.956;12.980;2024-03-22T01:21:04;6.60;99.90
29201;DHT22;16244;51.956;12.980;2024-03-22T01:23:33;6.60;99.90
29201;DHT22;16244;51.956;12.980;2024-03-22T01:26:00;6.50;99.90
29201;DHT22;16244;51.956;12.980;2024-03-22T01:28:29;6.50;99.90
29201;DHT22;16244;51.956;12.980;2024-03-22T01:30:56;6.50;99.90
29201;DHT22;16244;51.956;12.980;2024-03-22T01:33:25;6.50;99.90
29201;DHT22;16244;51.956;12.980;2024-03-22T01:35:53;6.50;99.90
29201;DHT22;16244;51.956;12.980;2024-03-22T01:38:26;6.50;99.90
29201;DHT22;16244;51.956;12.980;2024-03-22T01:40:54;6.50;99.90
29201;DHT22;16244;51.956;12.980;2024-03-22T01:43:22;6.50;99.90
29201;DHT22;16244;51.956;12.980;2024-03-22T01:45:49;6.40;99.90
29201;DHT22;16244;51.956;12.980;2024-03-22T01:48:20;6.30;99.90
29201;DHT22;16244;51.956;12.980;2024-03-22T01:50:52;6.30;99.90
29201;DHT22;16244;51.956;12.980;2024-03-22T01:53:20;6.40;99.90
29201;DHT22;16244;51.956;12.980;2024-03-22T01:55:54;6.40;99.90
29201;DHT22;16244;51.956;12.980;2024-03-22T01:58:26;6.40;99.90
29201;DHT22;16244;51.956;12.980;2024-03-22T02:00:52;6.40;99.90
29201;DHT22;16244;51.956;12.980;2024-03-22T02:03:21;6.40;99.90
29201;DHT22;16244;51.956;12.980;2024-03-22T02:05:47;6.40;99.90
29201;DHT22;16244;51.956;12.980;2024-03-22T02:08:15;6.50;99.90
29201;DHT22;16244;51.956;12.980;2024-03-22T02:10:43;6.50;99.90
29201;DHT22;16244;51.956;12.980;2024-03-22T02:13:15;6.50;99.90
29201;DHT22;16244;51.956;12.980;2024-03-22T02:15:42;6.50;99.90
29201;DHT22;16244;51.956;12.980;2024-03-22T02:18:10;6.50;99.90
29201;DHT22;16244;51.956;12.980;2024-03-22T02:20:37;6.50;99.90
29201;DHT22;16244;51.956;12.980;2024-03-22T02:23:05;6.50;99.90
29201;DHT22;16244;51.956;12.980;2024-03-22T02:25:33;6.50;99.90
29201;DHT22;16244;51.956;12.980;2024-03-22T02:28:05;6.50;99.90
29201;DHT22;16244;51.956;12.980;2024-03-22T02:30:32;6.50;99.90
29201;DHT22;16244;51.956;12.980;2024-03-22T02:33:00;6.50;99.90
29201;DHT22;16244;51.956;12.980;2024-03-22T02:35:27;6.60;99.90
29201;DHT22;16244;51.956;12.980;2024-03-22T02:37:56;6.60;99.90
29201;DHT22;16244;51.956;12.980;2024-03-22T02:40:25;6.60;99.90
29201;DHT22;16244;51.956;12.980;2024-03-22T02:42:54;6.60;99.90
29201;DHT22;16244;51.956;12.980;2024-03-22T02:45:20;6.60;99.90
29201;DHT22;16244;51.956;12.980;2024-03-22T02:47:48;6.50;99.90
29201;DHT22;16244;51.956;12.980;2024-03-22T02:50:15;6.50;99.90
29201;DHT22;16244;51.956;12.980;2024-03-22T02:52:50;6.50;99.90
29201;DHT22;16244;51.956;12.980;2024-03-22T02:55:17;6.50;99.90
29201;DHT22;16244;51.956;12.980;2024-03-22T02:57:45;6.50;99.90
29201;DHT22;16244;51.956;12.980;2024-03-22T03:00:14;6.50;99.90
29201;DHT22;16244;51.956;12.980;2024-03-22T03:02:43;6.60;99.90
29201;DHT22;16244;51.956;12.980;2024-03-22T03:05:13;6.60;99.90
29201;DHT22;16244;51.956;12.980;2024-03-22T03:07:42;6.60;99.90
29201;DHT22;16244;51.956;12.980;2024-03-22T03:10:09;6.50;99.90
29201;DHT22;16244;51.956;12.980;2024-03-22T03:12:37;6.50;99.90
29201;DHT22;16244;51.956;12.980;2024-03-22T03:15:06;6.60;99.90
29201;DHT22;16244;51.956;12.980;2024-03-22T03:17:37;6.60;99.90
29201;DHT22;16244;51.956;12.980;2024-03-22T03:20:06;6.60;99.90
29201;DHT22;16244;51.956;12.980;2024-03-22T03:22:36;6.60;99.90
29201;DHT22;16244;51.956;12.980;2024-03-22T03:25:07;6.70;99.90
29201;DHT22;16244;51.956;12.980;2024-03-22T03:27:34;6.60;99.90
29201;DHT22;16244;51.956;12.980;2024-03-22T03:30:04;6.60;99.90
29201;DHT22;16244;51.956;12.980;2024-03-22T03:32:32;6.50;99.90
29201;DHT22;16244;51.956;12.980;2024-03-22T03:35:01;6.60;99.90
29201;DHT22;16244;51.956;12.980;2024-03-22T03:37:29;6.60;99.90
29201;DHT22;16244;51.956;12.980;2024-03-22T03:39:58;6.60;99.90
29201;DHT22;16244;51.956;12.980;2024-03-22T03:42:29;6.60;99.90
29201;DHT22;16244;51.956;12.980;2024-03-22T03:44:56;6.60;99.90
29201;DHT22;16244;51.956;12.980;2024-03-22T03:47:24;6.60;99.90
29201;DHT22;16244;51.956;12.980;2024-03-22T03:49:52;6.50;99.90
29201;DHT22;16244;51.956;12.980;2024-03-22T03:52:32;6.60;99.90
29201;DHT22;16244;51.956;12.980;2024-03-22T03:54:58;6.60;99.90
29201;DHT22;16244;51.956;12.980;2024-03-22T03:57:26;6.50;99.90
29201;DHT22;16244;51.956;12.980;2024-03-22T03:59:55;6.60;99.90
29201;DHT22;16244;51.956;12.980;2024-03-22T04:02:24;6.50;99.90
29201;DHT22;16244;51.956;12.980;2024-03-22T04:04:52;6.50;99.90
29201;DHT22;16244;51.956;12.980;2024-03-22T04:07:21;6.60;99.90
29201;DHT22;16244;51.956;12.980;2024-03-22T04:09:52;6.50;99.90
29201;DHT22;16244;51.956;12.980;2024-03-22T04:12:20;6.60;99.90
29201;DHT22;16244;51.956;12.980;2024-03-22T04:14:51;6.50;99.90
29201;DHT22;16244;51.956;12.980;2024-03-22T04:17:18;6.50;99.90
29201;DHT22;16244;51.956;12.980;2024-03-22T04:19:45;6.50;99.90
29201;DHT22;16244;51.956;12.980;2024-03-22T04:22:13;6.60;99.90
29201;DHT22;16244;51.956;12.980;2024-03-22T04:24:40;6.60;99.90
29201;DHT22;16244;51.956;12.980;2024-03-22T04:27:10;6.60;99.90
29201;DHT22;16244;51.956;12.980;2024-03-22T04:29:39;6.60;99.90
29201;DHT22;16244;51.956;12.980;2024-03-22T04:32:06;6.60;99.90
29201;DHT22;16244;51.956;12.980;2024-03-22T04:34:37;6.60;99.90
29201;DHT22;16244;51.956;12.980;2024-03-22T04:37:04;6.60;99.90
29201;DHT22;16244;51.956;12.980;2024-03-22T04:39:35;6.60;99.90
29201;DHT22;16244;51.956;12.980;2024-03-22T04:42:03;6.50;99.90
29201;DHT22;16244;51.956;12.980;2024-03-22T04:44:36;6.60;99.90
29201;DHT22;16244;51.956;12.980;2024-03-22T04:47:05;6.60;99.90
29201;DHT22;16244;51.956;12.980;2024-03-22T04:49:33;6.60;99.90
29201;DHT22;16244;51.956;12.980;2024-03-22T04:52:00;6.60;99.90
29201;DHT22;16244;51.956;12.980;2024-03-22T04:54:28;6.60;99.90
29201;DHT22;16244;51.956;12.980;2024-03-22T04:56:56;6.60;99.90
29201;DHT22;16244;51.956;12.980;2024-03-22T04:59:33;6.60;99.90
29201;DHT22;16244;51.956;12.980;2024-03-22T05:02:01;6.50;99.90
29201;DHT22;16244;51.956;12.980;2024-03-22T05:04:30;6.50;99.90
29201;DHT22;16244;51.956;12.980;2024-03-22T05:06:57;6.40;99.90
29201;DHT22;16244;51.956;12.980;2024-03-22T05:09:24;6.50;99.90
29201;DHT22;16244;51.956;12.980;2024-03-22T05:11:52;6.40;99.90
29201;DHT22;16244;51.956;12.980;2024-03-22T05:14:21;6.50;99.90
29201;DHT22;16244;51.956;12.980;2024-03-22T05:16:51;6.50;99.90
29201;DHT22;16244;51.956;12.980;2024-03-22T05:19:20;6.50;99.90
29201;DHT22;16244;51.956;12.980;2024-03-22T05:21:47;6.50;99.90
29201;DHT22;16244;51.956;12.980;2024-03-22T05:24:14;6.60;99.90
29201;DHT22;16244;51.956;12.980;2024-03-22T05:26:44;6.60;99.90
29201;DHT22;16244;51.956;12.980;2024-03-22T05:29:13;6.60;99.90
29201;DHT22;16244;51.956;12.980;2024-03-22T05:31:48;6.60;99.90
29201;DHT22;16244;51.956;12.980;2024-03-22T05:34:17;6.60;99.90
29201;DHT22;16244;51.956;12.980;2024-03-22T05:36:47;6.60;99.90
29201;DHT22;16244;51.956;12.980;2024-03-22T05:39:20;6.60;99.90
29201;DHT22;16244;51.956;12.980;2024-03-22T05:41:47;6.70;99.90
29201;DHT22;16244;51.956;12.980;2024-03-22T05:44:16;6.70;99.90
29201;DHT22;16244;51.956;12.980;2024-03-22T05:46:43;6.70;99.90
29201;DHT22;16244;51.956;12.980;2024-03-22T05:49:11;6.70;99.90
29201;DHT22;16244;51.956;12.980;2024-03-22T05:51:39;6.80;99.90
29201;DHT22;16244;51.956;12.980;2024-03-22T05:54:08;6.90;99.90
29201;DHT22;16244;51.956;12.980;2024-03-22T05:56:35;6.90;99.90
29201;DHT22;16244;51.956;12.980;2024-03-22T05:59:05;6.80;99.90
29201;DHT22;16244;51.956;12.980;2024-03-22T06:01:32;6.90;99.90
29201;DHT22;16244;51.956;12.980;2024-03-22T06:04:00;6.90;99.90
29201;DHT22;16244;51.956;12.980;2024-03-22T06:06:26;7.00;99.90
29201;DHT22;16244;51.956;12.980;2024-03-22T06:08:55;7.10;99.90
29201;DHT22;16244;51.956;12.980;2024-03-22T06:11:25;7.10;99.90
29201;DHT22;16244;51.956;12.980;2024-03-22T06:13:52;7.10;99.90
29201;DHT22;16244;51.956;12.980;2024-03-22T06:16:19;7.10;99.90
29201;DHT22;16244;51.956;12.980;2024-03-22T06:18:48;7.20;99.90
29201;DHT22;16244;51.956;12.980;2024-03-22T06:21:15;7.20;99.90
29201;DHT22;16244;51.956;12.980;2024-03-22T06:23:49;7.30;99.90
29201;DHT22;16244;51.956;12.980;2024-03-22T06:26:18;7.30;99.90
29201;DHT22;16244;51.956;12.980;2024-03-22T06:28:47;7.40;99.90
29201;DHT22;16244;51.956;12.980;2024-03-22T06:31:14;7.40;99.90
29201;DHT22;16244;51.956;12.980;2024-03-22T06:33:44;7.50;99.90
29201;DHT22;16244;51.956;12.980;2024-03-22T06:36:11;7.50;99.90
29201;DHT22;16244;51.956;12.980;2024-03-22T06:38:39;7.70;99.90
29201;DHT22;16244;51.956;12.980;2024-03-22T06:41:06;7.70;99.90
29201;DHT22;16244;51.956;12.980;2024-03-22T06:43:40;7.70;99.90
29201;DHT22;16244;51.956;12.980;2024-03-22T06:46:09;7.80;99.90
29201;DHT22;16244;51.956;12.980;2024-03-22T06:48:37;8.00;99.90
29201;DHT22;16244;51.956;12.980;2024-03-22T06:51:04;8.00;99.90
29201;DHT22;16244;51.956;12.980;2024-03-22T06:53:32;8.00;99.90
29201;DHT22;16244;51.956;12.980;2024-03-22T06:56:01;8.10;99.90
29201;DHT22;16244;51.956;12.980;2024-03-22T06:58:30;8.10;99.90
29201;DHT22;16244;51.956;12.980;2024-03-22T07:00:57;8.10;99.90
29201;DHT22;16244;51.956;12.980;2024-03-22T07:03:28;8.10;99.90
29201;DHT22;16244;51.956;12.980;2024-03-22T07:05:54;8.20;99.90
29201;DHT22;16244;51.956;12.980;2024-03-22T07:08:23;8.20;99.90
29201;DHT22;16244;51.956;12.980;2024-03-22T07:10:54;8.20;99.90
29201;DHT22;16244;51.956;12.980;2024-03-22T07:13:21;8.30;99.90
29201;DHT22;16244;51.956;12.980;2024-03-22T07:15:53;8.40;99.90
29201;DHT22;16244;51.956;12.980;2024-03-22T07:18:20;8.50;99.90
29201;DHT22;16244;51.956;12.980;2024-03-22T07:20:49;8.60;99.90
29201;DHT22;16244;51.956;12.980;2024-03-22T07:23:18;8.70;99.90
29201;DHT22;16244;51.956;12.980;2024-03-22T07:25:44;8.70;99.90
29201;DHT22;16244;51.956;12.980;2024-03-22T07:28:14;8.70;99.90
29201;DHT22;16244;51.956;12.980;2024-03-22T07:30:44;8.70;99.90
29201;DHT22;16244;51.956;12.980;2024-03-22T07:33:19;8.70;99.90
29201;DHT22;16244;51.956;12.980;2024-03-22T07:35:46;8.70;99.90
29201;DHT22;16244;51.956;12.980;2024-03-22T07:38:18;8.80;99.90
29201;DHT22;16244;51.956;12.980;2024-03-22T07:40:53;8.80;99.90
29201;DHT22;16244;51.956;12.980;2024-03-22T07:43:28;8.90;99.90
29201;DHT22;16244;51.956;12.980;2024-03-22T07:45:55;8.90;99.90
29201;DHT22;16244;51.956;12.980;2024-03-22T07:48:22;8.90;99.90
29201;DHT22;16244;51.956;12.980;2024-03-22T07:50:56;9.00;99.90
29201;DHT22;16244;51.956;12.980;2024-03-22T07:53:25;9.10;99.90
29201;DHT22;16244;51.956;12.980;2024-03-22T07:55:51;9.20;99.90
29201;DHT22;16244;51.956;12.980;2024-03-22T07:58:20;9.30;99.90
29201;DHT22;16244;51.956;12.980;2024-03-22T08:00:46;9.50;99.90
29201;DHT22;16244;51.956;12.980;2024-03-22T08:03:15;9.70;99.90
29201;DHT22;16244;51.956;12.980;2024-03-22T08:05:42;9.90;99.90
29201;DHT22;16244;51.956;12.980;2024-03-22T08:08:10;10.00;99.90
29201;DHT22;16244;51.956;12.980;2024-03-22T08:10:38;10.10;99.90
29201;DHT22;16244;51.956;12.980;2024-03-22T08:13:06;9.90;99.90
29201;DHT22;16244;51.956;12.980;2024-03-22T08:15:32;9.80;99.90
29201;DHT22;16244;51.956;12.980;2024-03-22T08:18:13;9.80;99.90
29201;DHT22;16244;51.956;12.980;2024-03-22T08:20:40;9.70;99.90
29201;DHT22;16244;51.956;12.980;2024-03-22T08:23:07;9.70;99.90
29201;DHT22;16244;51.956;12.980;2024-03-22T08:25:35;9.80;99.90
29201;DHT22;16244;51.956;12.980;2024-03-22T08:28:04;9.70;99.90
29201;DHT22;16244;51.956;12.980;2024-03-22T08:30:32;9.80;99.90
29201;DHT22;16244;51.956;12.980;2024-03-22T08:32:59;9.80;99.90
29201;DHT22;16244;51.956;12.980;2024-03-22T08:35:26;9.70;99.90
29201;DHT22;16244;51.956;12.980;2024-03-22T08:37:53;9.80;99.90
29201;DHT22;16244;51.956;12.980;2024-03-22T08:40:21;9.90;99.90
29201;DHT22;16244;51.956;12.980;2024-03-22T08:42:47;9.80;99.90
29201;DHT22;16244;51.956;12.980;2024-03-22T08:45:16;9.90;99.90
29201;DHT22;16244;51.956;12.980;2024-03-22T08:47:45;9.90;99.90
29201;DHT22;16244;51.956;12.980;2024-03-22T08:50:42;9.90;99.90
29201;DHT22;16244;51.956;12.980;2024-03-22T08:53:15;10.00;99.90
29201;DHT22;16244;51.956;12.980;2024-03-22T08:55:47;10.00;99.90
29201;DHT22;16244;51.956;12.980;2024-03-22T08:58:17;10.00;99.90
29201;DHT22;16244;51.956;12.980;2024-03-22T09:00:49;10.00;99.90
29201;DHT22;16244;51.956;12.980;2024-03-22T09:03:15;10.00;99.90
29201;DHT22;16244;51.956;12.980;2024-03-22T09:05:45;10.00;99.90
29201;DHT22;16244;51.956;12.980;2024-03-22T09:08:12;10.00;99.90
29201;DHT22;16244;51.956;12.980;2024-03-22T09:10:40;10.00;99.90
29201;DHT22;16244;51.956;12.980;2024-03-22T09:13:11;10.00;99.90
29201;DHT22;16244;51.956;12.980;2024-03-22T09:16:08;10.00;99.90
29201;DHT22;16244;51.956;12.980;2024-03-22T09:18:42;10.00;99.90
29201;DHT22;16244;51.956;12.980;2024-03-22T09:21:13;10.00;99.90
29201;DHT22;16244;51.956;12.980;2024-03-22T09:23:47;10.00;99.90
29201;DHT22;16244;51.956;12.980;2024-03-22T09:26:17;10.00;99.90
29201;DHT22;16244;51.956;12.980;2024-03-22T09:28:46;10.00;99.90
29201;DHT22;16244;51.956;12.980;2024-03-22T09:31:17;10.10;99.90
29201;DHT22;16244;51.956;12.980;2024-03-22T09:33:45;10.20;99.90
29201;DHT22;16244;51.956;12.980;2024-03-22T09:36:11;10.20;99.90
29201;DHT22;16244;51.956;12.980;2024-03-22T09:38:40;10.30;99.90
29201;DHT22;16244;51.956;12.980;2024-03-22T09:41:07;10.40;99.90
29201;DHT22;16244;51.956;12.980;2024-03-22T09:43:35;10.50;99.90
29201;DHT22;16244;51.956;12.980;2024-03-22T09:46:01;10.60;99.90
29201;DHT22;16244;51.956;12.980;2024-03-22T09:48:31;10.70;99.90
29201;DHT22;16244;51.956;12.980;2024-03-22T09:51:04;10.80;99.90
29201;DHT22;16244;51.956;12.980;2024-03-22T09:53:34;10.90;99.90
29201;DHT22;16244;51.956;12.980;2024-03-22T09:56:03;11.00;99.90
29201;DHT22;16244;51.956;12.980;2024-03-22T09:58:31;11.10;99.90
29201;DHT22;16244;51.956;12.980;2024-03-22T10:00:57;11.20;99.90
29201;DHT22;16244;51.956;12.980;2024-03-22T10:03:26;11.20;99.90
29201;DHT22;16244;51.956;12.980;2024-03-22T10:05:55;11.30;99.90
29201;DHT22;16244;51.956;12.980;2024-03-22T10:08:27;11.40;99.50
29201;DHT22;16244;51.956;12.980;2024-03-22T10:10:53;11.50;99.70
29201;DHT22;16244;51.956;12.980;2024-03-22T10:13:22;11.70;99.70
29201;DHT22;16244;51.956;12.980;2024-03-22T10:16:19;11.70;98.80
29201;DHT22;16244;51.956;12.980;2024-03-22T10:18:48;11.90;98.80
29201;DHT22;16244;51.956;12.980;2024-03-22T10:21:19;11.90;98.90
29201;DHT22;16244;51.956;12.980;2024-03-22T10:23:47;11.90;98.40
29201;DHT22;16244;51.956;12.980;2024-03-22T10:26:15;12.00;97.80
29201;DHT22;16244;51.956;12.980;2024-03-22T10:28:47;12.00;98.30
29201;DHT22;16244;51.956;12.980;2024-03-22T10:31:14;12.00;98.30
29201;DHT22;16244;51.956;12.980;2024-03-22T10:33:44;12.00;98.30
29201;DHT22;16244;51.956;12.980;2024-03-22T10:36:11;12.00;98.20
29201;DHT22;16244;51.956;12.980;2024-03-22T10:38:42;12.00;98.40
29201;DHT22;16244;51.956;12.980;2024-03-22T10:41:10;12.10;98.40
29201;DHT22;16244;51.956;12.980;2024-03-22T10:43:38;12.20;98.00
29201;DHT22;16244;51.956;12.980;2024-03-22T10:46:05;12.20;98.50
29201;DHT22;16244;51.956;12.980;2024-03-22T10:48:35;12.20;98.60
29201;DHT22;16244;51.956;12.980;2024-03-22T10:51:04;12.20;97.40
29201;DHT22;16244;51.956;12.980;2024-03-22T10:53:32;12.30;97.90
29201;DHT22;16244;51.956;12.980;2024-03-22T10:56:04;12.30;98.00
29201;DHT22;16244;51.956;12.980;2024-03-22T10:58:34;12.40;97.40
29201;DHT22;16244;51.956;12.980;2024-03-22T11:01:06;12.40;97.40
29201;DHT22;16244;51.956;12.980;2024-03-22T11:03:35;12.50;97.30
29201;DHT22;16244;51.956;12.980;2024-03-22T11:06:02;12.70;97.50
29201;DHT22;16244;51.956;12.980;2024-03-22T11:08:30;12.80;96.00
29201;DHT22;16244;51.956;12.980;2024-03-22T11:10:57;12.90;95.60
29201;DHT22;16244;51.956;12.980;2024-03-22T11:13:27;12.90;94.80
29201;DHT22;16244;51.956;12.980;2024-03-22T11:15:55;13.00;95.60
29201;DHT22;16244;51.956;12.980;2024-03-22T11:18:25;13.10;95.90
29201;DHT22;16244;51.956;12.980;2024-03-22T11:20:52;13.10;94.90
29201;DHT22;16244;51.956;12.980;2024-03-22T11:23:20;13.10;94.30
29201;DHT22;16244;51.956;12.980;2024-03-22T11:25:47;13.10;94.10
29201;DHT22;16244;51.956;12.980;2024-03-22T11:28:16;13.10;93.90
29201;DHT22;16244;51.956;12.980;2024-03-22T11:30:46;13.10;94.80
29201;DHT22;16244;51.956;12.980;2024-03-22T11:33:14;13.10;94.80
29201;DHT22;16244;51.956;12.980;2024-03-22T11:35:41;13.20;94.10
29201;DHT22;16244;51.956;12.980;2024-03-22T11:38:10;13.30;93.80
29201;DHT22;16244;51.956;12.980;2024-03-22T11:40:37;13.50;93.50
29201;DHT22;16244;51.956;12.980;2024-03-22T11:43:05;13.50;93.40
29201;DHT22;16244;51.956;12.980;2024-03-22T11:45:32;13.60;93.60
29201;DHT22;16244;51.956;12.980;2024-03-22T11:48:06;13.50;92.90
29201;DHT22;16244;51.956;12.980;2024-03-22T11:50:32;13.40;93.50
29201;DHT22;16244;51.956;12.980;2024-03-22T11:53:02;13.40;93.40
29201;DHT22;16244;51.956;12.980;2024-03-22T11:55:35;13.30;93.70
29201;DHT22;16244;51.956;12.980;2024-03-22T11:58:03;13.20;93.40
29201;DHT22;16244;51.956;12.980;2024-03-22T12:00:30;13.30;94.20
29201;DHT22;16244;51.956;12.980;2024-03-22T12:02:58;13.30;92.90
29201;DHT22;16244;51.956;12.980;2024-03-22T12:05:26;13.30;93.10
29201;DHT22;16244;51.956;12.980;2024-03-22T12:07:55;13.30;93.00
29201;DHT22;16244;51.956;12.980;2024-03-22T12:10:22;13.30;92.80
29201;DHT22;16244;51.956;12.980;2024-03-22T12:12:50;13.30;92.70
29201;DHT22;16244;51.956;12.980;2024-03-22T12:15:17;13.30;93.00
29201;DHT22;16244;51.956;12.980;2024-03-22T12:17:44;13.40;92.80
29201;DHT22;16244;51.956;12.980;2024-03-22T12:20:11;13.40;93.10
29201;DHT22;16244;51.956;12.980;2024-03-22T12:22:43;13.50;92.40
29201;DHT22;16244;51.956;12.980;2024-03-22T12:25:10;13.60;92.60
29201;DHT22;16244;51.956;12.980;2024-03-22T12:27:38;13.70;92.60
29201;DHT22;16244;51.956;12.980;2024-03-22T12:30:05;13.70;91.90
29201;DHT22;16244;51.956;12.980;2024-03-22T12:32:34;13.60;92.10
29201;DHT22;16244;51.956;12.980;2024-03-22T12:35:01;13.60;91.80
29201;DHT22;16244;51.956;12.980;2024-03-22T12:37:30;13.60;92.30
29201;DHT22;16244;51.956;12.980;2024-03-22T12:39:58;13.60;92.90
29201;DHT22;16244;51.956;12.980;2024-03-22T12:42:31;13.50;92.10
29201;DHT22;16244;51.956;12.980;2024-03-22T12:44:59;13.50;92.40
29201;DHT22;16244;51.956;12.980;2024-03-22T12:47:27;13.40;92.10
29201;DHT22;16244;51.956;12.980;2024-03-22T12:49:54;13.30;92.50
29201;DHT22;16244;51.956;12.980;2024-03-22T12:52:21;13.30;92.70
29201;DHT22;16244;51.956;12.980;2024-03-22T12:54:48;13.30;92.40
29201;DHT22;16244;51.956;12.980;2024-03-22T12:57:17;13.30;92.40
29201;DHT22;16244;51.956;12.980;2024-03-22T12:59:44;13.30;92.90
29201;DHT22;16244;51.956;12.980;2024-03-22T13:02:12;13.30;93.10
29201;DHT22;16244;51.956;12.980;2024-03-22T13:04:39;13.30;93.30
29201;DHT22;16244;51.956;12.980;2024-03-22T13:07:08;13.20;93.40
29201;DHT22;16244;51.956;12.980;2024-03-22T13:09:35;13.30;93.00
29201;DHT22;16244;51.956;12.980;2024-03-22T13:12:08;13.20;93.20
29201;DHT22;16244;51.956;12.980;2024-03-22T13:14:39;13.20;93.10
29201;DHT22;16244;51.956;12.980;2024-03-22T13:17:09;13.20;93.10
29201;DHT22;16244;51.956;12.980;2024-03-22T13:19:35;13.10;93.50
29201;DHT22;16244;51.956;12.980;2024-03-22T13:22:04;13.10;94.60
29201;DHT22;16244;51.956;12.980;2024-03-22T13:24:32;13.00;95.70
29201;DHT22;16244;51.956;12.980;2024-03-22T13:27:02;12.90;96.20
29201;DHT22;16244;51.956;12.980;2024-03-22T13:29:30;12.90;96.70
29201;DHT22;16244;51.956;12.980;2024-03-22T13:31:59;12.70;97.20
29201;DHT22;16244;51.956;12.980;2024-03-22T13:34:26;12.70;99.00
29201;DHT22;16244;51.956;12.980;2024-03-22T13:36:55;12.60;99.90
29201;DHT22;16244;51.956;12.980;2024-03-22T13:39:21;12.60;99.90
29201;DHT22;16244;51.956;12.980;2024-03-22T13:41:51;12.50;99.90
29201;DHT22;16244;51.956;12.980;2024-03-22T13:44:18;12.50;99.90
29201;DHT22;16244;51.956;12.980;2024-03-22T13:46:46;12.50;99.90
29201;DHT22;16244;51.956;12.980;2024-03-22T13:49:15;12.50;99.90
29201;DHT22;16244;51.956;12.980;2024-03-22T13:52:11;12.50;99.90
29201;DHT22;16244;51.956;12.980;2024-03-22T13:55:07;12.40;99.90
29201;DHT22;16244;51.956;12.980;2024-03-22T13:57:42;12.40;99.90
29201;DHT22;16244;51.956;12.980;2024-03-22T14:00:09;12.50;99.90
29201;DHT22;16244;51.956;12.980;2024-03-22T14:02:41;12.50;99.90
29201;DHT22;16244;51.956;12.980;2024-03-22T14:05:12;12.50;99.90
29201;DHT22;16244;51.956;12.980;2024-03-22T14:07:40;12.50;99.50
29201;DHT22;16244;51.956;12.980;2024-03-22T14:10:08;12.50;99.20
29201;DHT22;16244;51.956;12.980;2024-03-22T14:12:40;12.50;98.70
29201;DHT22;16244;51.956;12.980;2024-03-22T14:15:08;12.50;99.30
29201;DHT22;16244;51.956;12.980;2024-03-22T14:17:36;12.50;99.90
29201;DHT22;16244;51.956;12.980;2024-03-22T14:20:05;12.50;99.90
29201;DHT22;16244;51.956;12.980;2024-03-22T14:22:39;12.50;99.90
29201;DHT22;16244;51.956;12.980;2024-03-22T14:25:07;12.40;99.50
29201;DHT22;16244;51.956;12.980;2024-03-22T14:27:35;12.40;99.90
29201;DHT22;16244;51.956;12.980;2024-03-22T14:30:03;12.40;99.90
29201;DHT22;16244;51.956;12.980;2024-03-22T14:32:32;12.40;99.90
29201;DHT22;16244;51.956;12.980;2024-03-22T14:34:59;12.40;99.90
29201;DHT22;16244;51.956;12.980;2024-03-22T14:37:29;12.40;99.90
29201;DHT22;16244;51.956;12.980;2024-03-22T14:39:57;12.30;99.90
29201;DHT22;16244;51.956;12.980;2024-03-22T14:42:25;12.30;99.90
29201;DHT22;16244;51.956;12.980;2024-03-22T14:44:52;12.20;99.90
29201;DHT22;16244;51.956;12.980;2024-03-22T14:47:22;12.00;99.90
29201;DHT22;16244;51.956;12.980;2024-03-22T14:49:49;12.00;99.90
29201;DHT22;16244;51.956;12.980;2024-03-22T14:52:21;12.00;99.90
29201;DHT22;16244;51.956;12.980;2024-03-22T14:54:48;11.90;99.90
29201;DHT22;16244;51.956;12.980;2024-03-22T14:57:17;11.90;99.90
29201;DHT22;16244;51.956;12.980;2024-03-22T14:59:44;11.80;99.90
29201;DHT22;16244;51.956;12.980;2024-03-22T15:02:11;11.70;99.90
29201;DHT22;16244;51.956;12.980;2024-03-22T15:04:39;11.70;99.90
29201;DHT22;16244;51.956;12.980;2024-03-22T15:07:05;11.70;99.90
29201;DHT22;16244;51.956;12.980;2024-03-22T15:09:33;11.60;99.90
29201;DHT22;16244;51.956;12.980;2024-03-22T15:12:00;11.60;99.90
29201;DHT22;16244;51.956;12.980;2024-03-22T15:14:30;11.60;99.90
29201;DHT22;16244;51.956;12.980;2024-03-22T15:16:56;11.50;99.90
29201;DHT22;16244;51.956;12.980;2024-03-22T15:19:24;11.50;99.90
29201;DHT22;16244;51.956;12.980;2024-03-22T15:21:51;11.40;99.90
29201;DHT22;16244;51.956;12.980;2024-03-22T15:24:19;11.50;99.90
29201;DHT22;16244;51.956;12.980;2024-03-22T15:26:47;11.40;99.90
29201;DHT22;16244;51.956;12.980;2024-03-22T15:29:15;11.40;99.90
29201;DHT22;16244;51.956;12.980;2024-03-22T15:31:42;11.50;99.90
29201;DHT22;16244;51.956;12.980;2024-03-22T15:34:10;11.50;99.90
29201;DHT22;16244;51.956;12.980;2024-03-22T15:36:37;11.50;99.90